Time;durP1;ratioP1;P1;durP2;ratioP2;P2;SDS_P1;SDS_P2;PMS_P1;PMS_P2;Temp;Humidity;BMP_temperature;BMP_pressure;BME280_temperature;BME280_humidity;BME280_pressure;Samples;Min_cycle;Max_cycle;Signal;HPM_P1;HPM_P2
2022/07/10 00:00:03;;;;;;;10.00;7.35;;;;;;;26.68;77.21;98870.25;5080617;28;20497;-75
2022/07/10 00:02:39;;;;;;;10.23;8.30;;;;;;;26.75;75.80;98866.13;5094998;28;20036;-78
2022/07/10 00:05:05;;;;;;;8.88;7.22;;;;;;;26.61;74.76;98864.25;5064860;28;20036;-77
2022/07/10 00:07:31;;;;;;;7.82;7.03;;;;;;;26.45;74.23;98861.59;5099987;28;20103;-77
2022/07/10 00:09:57;;;;;;;7.78;6.50;;;;;;;26.41;73.39;98863.25;5083724;28;20040;-76
2022/07/10 00:12:23;;;;;;;7.40;6.28;;;;;;;26.59;72.83;98866.44;5083878;28;20043;-76
2022/07/10 00:14:48;;;;;;;11.68;9.10;;;;;;;26.55;71.66;98870.81;5066390;28;20043;-78
2022/07/10 00:17:14;;;;;;;7.85;6.30;;;;;;;26.69;70.73;98877.31;5078968;28;20066;-77
2022/07/10 00:19:40;;;;;;;10.30;7.60;;;;;;;26.61;70.06;98866.97;5067165;28;20040;-78
2022/07/10 00:22:06;;;;;;;7.38;6.45;;;;;;;26.60;69.43;98865.34;5038913;28;20035;-77
2022/07/10 00:24:32;;;;;;;10.85;7.47;;;;;;;26.65;68.14;98865.38;5065475;28;20028;-76
2022/07/10 00:26:58;;;;;;;8.23;6.68;;;;;;;26.61;66.76;98866.97;5067263;28;20053;-76
2022/07/10 00:29:24;;;;;;;6.10;5.05;;;;;;;26.73;65.85;98867.47;5086022;28;20042;-76
2022/07/10 00:31:50;;;;;;;8.55;6.95;;;;;;;26.83;65.49;98851.88;5085118;28;20508;-76
2022/07/10 00:34:15;;;;;;;9.50;5.40;;;;;;;27.06;64.58;98862.09;5068322;28;20040;-77
2022/07/10 00:36:41;;;;;;;9.55;5.68;;;;;;;27.18;63.42;98862.56;5084364;28;20116;-76
2022/07/10 00:39:07;;;;;;;12.20;7.30;;;;;;;27.70;64.56;98867.34;5075503;28;20194;-76
2022/07/10 00:41:32;;;;;;;11.60;7.85;;;;;;;28.00;63.76;98864.31;5058904;28;20445;-74
2022/07/10 00:44:00;;;;;;;9.35;6.05;;;;;;;28.37;63.31;98852.72;5061761;28;20039;-76
2022/07/10 00:46:27;;;;;;;10.52;5.80;;;;;;;28.17;62.50;98847.50;5114098;28;20100;-74
2022/07/10 00:48:53;;;;;;;6.15;5.15;;;;;;;27.57;60.62;98813.44;5096159;28;20518;-74
2022/07/10 00:51:22;;;;;;;8.02;5.43;;;;;;;27.91;61.77;98852.41;5095930;28;20503;-73
2022/07/10 00:53:49;;;;;;;8.73;5.90;;;;;;;27.86;62.17;98849.72;5095648;28;20050;-74
2022/07/10 00:56:21;;;;;;;9.55;6.35;;;;;;;28.15;61.85;98847.78;5062183;28;20039;-73
2022/07/10 00:58:47;;;;;;;9.35;6.45;;;;;;;27.73;61.61;98809.44;5078590;28;20050;-74
2022/07/10 01:01:13;;;;;;;11.40;6.93;;;;;;;28.10;61.58;98847.84;5078745;28;20040;-74
2022/07/10 01:03:39;;;;;;;12.48;6.00;;;;;;;27.95;60.32;98857.00;5078688;28;20456;-73
2022/07/10 01:06:05;;;;;;;12.90;6.32;;;;;;;27.70;59.40;98861.88;5078864;28;20140;-76
2022/07/10 01:08:31;;;;;;;10.45;6.03;;;;;;;26.94;55.15;98861.63;5078763;28;20559;-74
2022/07/10 01:10:57;;;;;;;12.60;7.10;;;;;;;26.98;57.60;98849.09;5044936;28;20470;-72
2022/07/10 01:13:23;;;;;;;14.40;8.02;;;;;;;27.34;59.39;98845.00;5095547;28;20117;-74
2022/07/10 01:15:48;;;;;;;12.38;8.23;;;;;;;27.56;59.31;98839.09;5095740;28;20145;-75
2022/07/10 01:18:14;;;;;;;12.27;8.63;;;;;;;27.81;59.22;98842.41;5075110;28;20560;-75
2022/07/10 01:20:40;;;;;;;9.40;6.30;;;;;;;27.95;58.73;98848.00;5092576;28;20052;-76
2022/07/10 01:23:06;;;;;;;10.55;5.93;;;;;;;27.87;58.23;98818.63;5092709;28;20032;-75
2022/07/10 01:25:32;;;;;;;16.58;8.65;;;;;;;28.14;58.18;98835.22;5093237;28;20424;-74
2022/07/10 01:27:58;;;;;;;11.88;8.43;;;;;;;28.01;58.33;98814.09;5090866;28;20407;-73
2022/07/10 01:30:25;;;;;;;10.48;8.65;;;;;;;28.29;57.89;98821.41;5092522;28;20040;-74
2022/07/10 01:32:52;;;;;;;9.55;6.93;;;;;;;28.20;56.74;98844.19;5074370;28;20126;-75
2022/07/10 01:35:20;;;;;;;9.80;6.38;;;;;;;28.28;52.70;98844.34;5092089;28;20415;-74
2022/07/10 01:37:46;;;;;;;11.93;7.07;;;;;;;27.80;49.35;98826.31;5073970;28;20300;-73
2022/07/10 01:40:12;;;;;;;12.77;7.28;;;;;;;27.77;47.70;98865.91;5091671;28;20071;-74
2022/07/10 01:42:38;;;;;;;15.23;6.68;;;;;;;27.96;49.46;98855.09;5072345;28;20428;-73
2022/07/10 01:45:09;;;;;;;16.27;8.18;;;;;;;27.77;48.96;98856.88;5072524;28;20460;-75
2022/07/10 01:47:36;;;;;;;8.95;6.28;;;;;;;27.11;48.84;98864.78;5088899;28;20032;-73
2022/07/10 01:50:02;;;;;;;8.07;5.47;;;;;;;26.56;47.53;98828.84;5088920;28;20040;-73
2022/07/10 01:52:29;;;;;;;6.47;4.82;;;;;;;26.62;48.01;98861.25;5087743;28;20415;-73
2022/07/10 01:54:55;;;;;;;8.70;5.70;;;;;;;26.90;49.93;98857.03;5071001;28;20078;-72
2022/07/10 01:57:20;;;;;;;10.10;5.38;;;;;;;26.69;46.80;98877.31;5072025;28;20068;-73
2022/07/10 01:59:46;;;;;;;17.15;5.90;;;;;;;26.74;48.02;98863.69;5089363;28;20123;-72
2022/07/10 02:02:12;;;;;;;10.70;6.15;;;;;;;26.88;47.93;98873.66;5057028;28;20040;-72
2022/07/10 02:04:40;;;;;;;10.15;5.75;;;;;;;27.09;46.85;98871.63;5091466;28;20119;-72
2022/07/10 02:07:13;;;;;;;9.60;5.57;;;;;;;27.11;44.27;98877.63;5074774;28;20085;-73
2022/07/10 02:09:40;;;;;;;15.88;6.28;;;;;;;27.46;45.85;98872.72;5092403;28;20146;-75
2022/07/10 02:12:10;;;;;;;17.73;7.13;;;;;;;27.52;45.14;98873.50;5074304;28;20040;-75
2022/07/10 02:14:36;;;;;;;16.90;6.50;;;;;;;27.32;44.35;98871.78;5092921;28;20040;-75
2022/07/10 02:17:05;;;;;;;25.95;6.85;;;;;;;27.37;45.38;98868.97;5074901;28;20062;-76
2022/07/10 02:19:31;;;;;;;21.45;7.00;;;;;;;27.33;44.58;98878.84;5061499;28;20043;-76
2022/07/10 02:21:57;;;;;;;13.00;5.95;;;;;;;27.33;45.29;98880.75;5046257;28;20499;-76
2022/07/10 02:24:23;;;;;;;8.18;4.43;;;;;;;27.09;43.96;98886.09;5046454;28;20414;-76
2022/07/10 02:26:49;;;;;;;10.75;4.95;;;;;;;27.05;44.33;98886.91;5079120;28;20099;-76
2022/07/10 02:29:15;;;;;;;7.28;4.45;;;;;;;27.22;45.25;98881.88;5113419;28;20051;-75
2022/07/10 02:31:40;;;;;;;15.27;5.10;;;;;;;27.22;45.20;98890.06;5077710;28;20050;-75
2022/07/10 02:34:10;;;;;;;8.38;5.07;;;;;;;27.60;45.84;98845.63;5112786;28;20039;-75
2022/07/10 02:36:38;;;;;;;8.57;4.50;;;;;;;27.46;44.95;98889.09;5112527;28;20052;-74
2022/07/10 02:39:07;;;;;;;11.75;4.88;;;;;;;27.69;44.28;98885.59;5094430;28;20315;-74
2022/07/10 02:41:33;;;;;;;8.18;5.28;;;;;;;27.40;43.70;98883.97;5112534;28;20126;-75
2022/07/10 02:43:59;;;;;;;7.70;5.20;;;;;;;27.56;45.17;98880.84;5094246;28;20184;-75
2022/07/10 02:46:25;;;;;;;7.40;4.90;;;;;;;27.82;44.95;98881.41;5094368;28;20404;-75
2022/07/10 02:48:51;;;;;;;8.98;5.13;;;;;;;27.93;45.30;98848.31;5077060;28;20039;-74
2022/07/10 02:51:16;;;;;;;7.82;5.50;;;;;;;28.24;45.08;98873.34;5076896;28;20047;-76
2022/07/10 02:53:42;;;;;;;8.48;4.93;;;;;;;28.52;44.84;98877.16;5077135;28;20127;-75
2022/07/10 02:56:08;;;;;;;8.93;5.10;;;;;;;28.65;44.73;98869.03;5094521;28;20044;-75
2022/07/10 02:58:34;;;;;;;8.30;5.70;;;;;;;28.74;44.41;98839.94;5077377;28;20079;-75
2022/07/10 03:01:00;;;;;;;6.60;4.22;;;;;;;28.95;43.36;98878.75;5093835;28;20096;-74
2022/07/10 03:03:25;;;;;;;9.10;5.20;;;;;;;29.11;43.47;98891.09;5111714;28;20052;-73
2022/07/10 03:05:51;;;;;;;5.15;3.92;;;;;;;28.84;42.23;98885.47;5076495;28;20046;-76
2022/07/10 03:08:17;;;;;;;7.68;4.10;;;;;;;28.82;43.36;98883.03;5112346;28;20043;-77
2022/07/10 03:10:43;;;;;;;7.47;4.40;;;;;;;28.87;43.18;98890.34;5111419;28;20092;-76
2022/07/10 03:13:09;;;;;;;5.65;4.03;;;;;;;29.01;41.95;98889.31;5093346;28;20043;-75
2022/07/10 03:15:35;;;;;;;6.78;3.63;;;;;;;28.66;39.37;98892.50;5077242;28;20457;-75
2022/07/10 03:18:01;;;;;;;4.50;3.60;;;;;;;28.75;42.33;98870.81;5094408;28;20070;-75
2022/07/10 03:20:27;;;;;;;6.63;3.80;;;;;;;28.54;42.00;98874.94;5078054;28;20142;-75
2022/07/10 03:22:52;;;;;;;4.70;3.63;;;;;;;28.06;40.92;98889.66;5095037;28;20099;-75
2022/07/10 03:25:18;;;;;;;4.60;3.70;;;;;;;28.00;41.75;98877.97;5078104;28;20036;-75
2022/07/10 03:27:44;;;;;;;9.27;4.10;;;;;;;28.08;42.63;98882.00;5076695;28;20074;-75
2022/07/10 03:30:10;;;;;;;5.95;4.05;;;;;;;28.25;43.48;98871.44;5094222;28;20161;-74
2022/07/10 03:32:35;;;;;;;5.78;4.45;;;;;;;28.22;43.61;98870.09;5096469;28;20807;-74
2022/07/10 03:35:01;;;;;;;4.95;4.35;;;;;;;28.43;42.54;98862.47;5066984;28;20055;-74
2022/07/10 03:37:29;;;;;;;4.75;4.13;;;;;;;28.48;42.58;98856.97;5119868;28;20060;-74
2022/07/10 03:39:54;;;;;;;7.47;4.28;;;;;;;28.52;42.74;98858.84;5098681;28;20125;-74
2022/07/10 03:42:20;;;;;;;7.38;4.28;;;;;;;28.60;43.03;98849.97;5114977;28;20046;-74
2022/07/10 03:44:46;;;;;;;9.70;4.13;;;;;;;28.57;42.79;98842.34;5093131;28;20040;-74
2022/07/10 03:47:12;;;;;;;9.68;5.05;;;;;;;28.69;43.20;98820.06;5093083;28;20093;-74
2022/07/10 03:49:41;;;;;;;10.82;4.97;;;;;;;28.63;43.67;98805.66;5092983;28;20055;-74
2022/07/10 03:52:07;;;;;;;11.93;4.78;;;;;;;28.68;42.97;98794.66;5076091;28;20499;-72
2022/07/10 03:54:33;;;;;;;7.93;4.90;;;;;;;28.63;42.83;98794.72;5111299;28;20108;-73
2022/07/10 03:59:43;;;;;;;14.27;7.53;;;;;;;28.69;42.56;98788.06;5110878;28;20062;-73
2022/07/10 04:02:09;;;;;;;13.90;7.20;;;;;;;28.90;42.73;98778.47;5045533;28;20415;-73
2022/07/10 04:04:35;;;;;;;10.85;6.72;;;;;;;29.09;42.90;98782.00;5096753;28;20100;-72
2022/07/10 04:07:00;;;;;;;15.30;7.18;;;;;;;29.03;42.29;98788.63;5096960;28;20118;-74
2022/07/10 04:09:26;;;;;;;12.18;6.30;;;;;;;29.12;42.37;98784.16;5114902;28;20040;-74
2022/07/10 04:11:52;;;;;;;15.23;6.55;;;;;;;29.17;42.01;98769.56;5096611;28;20085;-75
2022/07/10 04:14:17;;;;;;;10.38;6.80;;;;;;;29.29;41.26;98787.13;5063020;28;20093;-75
2022/07/10 04:16:43;;;;;;;14.30;7.85;;;;;;;29.22;43.07;98780.44;5079419;28;20098;-75
2022/07/10 04:19:09;;;;;;;12.30;6.30;;;;;;;29.19;42.20;98775.56;5079358;28;20047;-75
2022/07/10 04:21:37;;;;;;;11.15;7.30;;;;;;;29.30;42.79;98766.06;5096823;28;20499;-75
2022/07/10 04:24:03;;;;;;;19.92;7.43;;;;;;;29.63;42.39;98756.72;5096795;28;20077;-74
2022/07/10 04:26:29;;;;;;;19.95;7.45;;;;;;;29.51;42.54;98751.72;5114800;28;20581;-77
2022/07/10 04:28:54;;;;;;;15.38;7.15;;;;;;;29.49;42.59;98756.69;5080108;28;20126;-77
2022/07/10 04:31:23;;;;;;;13.32;6.60;;;;;;;29.75;42.57;98778.13;5118899;28;20047;-77
2022/07/10 04:33:48;;;;;;;11.55;6.25;;;;;;;29.65;40.55;98784.63;5100104;28;20154;-77
2022/07/10 04:36:14;;;;;;;17.63;6.63;;;;;;;29.92;42.00;98781.09;5080595;28;20039;-76
2022/07/10 04:38:42;;;;;;;19.35;8.02;;;;;;;29.91;41.47;98774.00;5079550;28;20050;-75
2022/07/10 04:41:08;;;;;;;12.48;7.35;;;;;;;30.06;41.22;98752.56;5096048;28;20411;-74
2022/07/10 04:43:33;;;;;;;15.10;7.55;;;;;;;30.36;40.90;98776.63;5096262;28;20050;-75
2022/07/10 04:45:59;;;;;;;12.90;7.70;;;;;;;30.32;41.42;98753.69;5096054;28;20675;-75
2022/07/10 04:48:25;;;;;;;14.20;7.55;;;;;;;30.45;40.59;98779.44;5079064;28;20043;-73
2022/07/10 04:50:51;;;;;;;12.10;7.40;;;;;;;30.39;41.30;98753.28;5078900;28;20044;-74
2022/07/10 04:53:16;;;;;;;10.57;7.60;;;;;;;30.46;40.47;98787.34;5079059;28;20077;-73
2022/07/10 04:55:42;;;;;;;12.73;7.13;;;;;;;30.85;40.26;98786.78;5095520;28;20043;-72
2022/07/10 04:58:08;;;;;;;12.00;8.00;;;;;;;30.97;40.43;98778.81;5095689;28;20089;-74
2022/07/10 05:00:33;;;;;;;14.10;7.85;;;;;;;31.14;40.15;98776.19;5062130;28;20057;-74
2022/07/10 05:02:59;;;;;;;10.90;7.78;;;;;;;31.24;40.03;98755.91;5095625;28;20411;-76
2022/07/10 05:05:25;;;;;;;11.10;7.40;;;;;;;31.47;39.67;98769.34;5078794;28;20036;-75
2022/07/10 05:07:50;;;;;;;12.90;7.97;;;;;;;31.77;39.53;98776.75;5078741;28;20039;-77
2022/07/10 05:10:16;;;;;;;13.63;7.95;;;;;;;31.87;38.27;98775.69;5078537;28;20486;-76
2022/07/10 05:12:42;;;;;;;16.10;8.10;;;;;;;31.99;39.42;98779.47;5077247;28;20043;-75
2022/07/10 05:15:08;;;;;;;12.05;7.80;;;;;;;32.16;39.34;98771.28;5096164;28;20495;-76
2022/07/10 05:17:34;;;;;;;11.30;7.97;;;;;;;32.16;39.16;98776.75;5094620;28;20060;-76
2022/07/10 05:20:00;;;;;;;10.90;7.63;;;;;;;32.31;38.31;98781.81;5113298;28;20043;-76
2022/07/10 05:22:26;;;;;;;11.23;6.88;;;;;;;32.52;38.07;98771.06;5113457;28;20039;-76
2022/07/10 05:24:51;;;;;;;14.35;8.18;;;;;;;32.25;36.52;98777.59;5095669;28;20136;-76
2022/07/10 05:27:19;;;;;;;18.23;8.10;;;;;;;32.46;38.20;98775.88;5078759;28;20051;-69
2022/07/10 05:29:46;;;;;;;13.50;7.38;;;;;;;32.72;37.93;98773.97;5113241;28;20050;-72
2022/07/10 05:32:12;;;;;;;12.75;7.40;;;;;;;32.74;36.90;98783.84;5113181;28;20062;-72
2022/07/10 05:34:38;;;;;;;11.75;7.13;;;;;;;33.01;36.99;98789.03;5078246;28;20530;-72
2022/07/10 05:37:04;;;;;;;12.55;6.88;;;;;;;33.32;36.36;98784.16;5094857;28;20460;-72
2022/07/10 05:39:29;;;;;;;11.00;7.15;;;;;;;33.47;35.30;98780.91;5094622;28;20036;-72
2022/07/10 05:41:57;;;;;;;14.40;6.82;;;;;;;33.43;35.24;98772.47;5077843;28;20138;-71
2022/07/10 05:44:24;;;;;;;10.57;6.75;;;;;;;33.76;35.45;98762.50;5077992;28;20133;-72
2022/07/10 05:46:49;;;;;;;18.73;7.57;;;;;;;33.69;35.82;98739.38;5094810;28;20142;-72
2022/07/10 05:49:15;;;;;;;14.48;7.88;;;;;;;33.82;34.96;98750.16;5027517;28;20141;-72
2022/07/10 05:51:41;;;;;;;14.55;7.90;;;;;;;34.11;35.42;98757.66;5112834;28;20051;-72
2022/07/10 05:54:08;;;;;;;18.30;8.07;;;;;;;34.44;34.78;98761.41;5094797;28;20128;-73
2022/07/10 05:56:34;;;;;;;16.50;7.55;;;;;;;34.60;33.33;98756.88;5077868;28;20053;-73
2022/07/10 05:58:59;;;;;;;16.70;7.10;;;;;;;34.92;33.22;98758.13;5077438;28;20114;-73
2022/07/10 06:01:28;;;;;;;9.73;7.22;;;;;;;35.16;32.54;98761.78;5111276;28;20059;-72
2022/07/10 06:03:54;;;;;;;16.60;8.43;;;;;;;35.20;32.82;98750.84;5094831;28;20423;-72
2022/07/10 06:06:20;;;;;;;14.05;8.65;;;;;;;35.08;30.60;98754.41;5077172;28;20049;-72
2022/07/10 06:08:46;;;;;;;10.93;8.15;;;;;;;35.20;31.34;98746.16;5112512;28;20039;-72
2022/07/10 06:11:12;;;;;;;10.23;8.85;;;;;;;35.51;31.75;98763.06;5095028;28;20051;-73
2022/07/10 06:13:38;;;;;;;11.25;7.85;;;;;;;35.78;31.18;98770.69;5112906;28;20043;-72
2022/07/10 06:16:04;;;;;;;11.95;7.63;;;;;;;36.13;31.08;98770.28;5077786;28;20503;-73
2022/07/10 06:18:34;;;;;;;13.18;8.23;;;;;;;36.54;30.55;98767.28;5060522;28;20092;-74
2022/07/10 06:20:59;;;;;;;10.82;7.47;;;;;;;36.59;29.70;98758.72;5112411;28;20039;-73
2022/07/10 06:23:25;;;;;;;10.32;7.38;;;;;;;36.57;29.00;98769.34;5093940;28;20499;-74
2022/07/10 06:25:51;;;;;;;10.13;7.30;;;;;;;36.14;29.19;98769.13;5077167;28;20432;-73
2022/07/10 06:28:18;;;;;;;8.90;6.88;;;;;;;35.91;29.67;98766.03;5077202;28;20495;-71
2022/07/10 06:30:46;;;;;;;13.98;7.60;;;;;;;35.63;29.88;98765.84;5060368;28;20066;-72
2022/07/10 06:33:12;;;;;;;13.90;7.70;;;;;;;35.47;29.99;98773.16;5093791;28;20047;-70
2022/07/10 06:35:37;;;;;;;11.35;7.28;;;;;;;35.86;29.18;98773.75;5093769;28;20046;-69
2022/07/10 06:38:06;;;;;;;8.60;7.50;;;;;;;36.49;28.44;98781.38;5077142;28;20406;-72
2022/07/10 06:40:35;;;;;;;10.43;7.95;;;;;;;37.04;27.90;98779.50;5077011;28;20100;-71
2022/07/10 06:43:01;;;;;;;12.20;7.15;;;;;;;37.25;27.56;98782.09;5111695;28;20055;-72
2022/07/10 06:45:30;;;;;;;8.75;6.78;;;;;;;37.67;26.17;98783.28;5043551;28;20189;-72
2022/07/10 06:47:56;;;;;;;9.10;7.10;;;;;;;37.10;26.55;98775.31;5111773;28;20415;-72
2022/07/10 06:50:23;;;;;;;11.10;8.15;;;;;;;37.07;26.99;98792.63;5059832;28;20035;-72
2022/07/10 06:52:49;;;;;;;11.63;7.75;;;;;;;36.62;27.34;98769.09;5093271;28;20126;-71
2022/07/10 06:55:16;;;;;;;13.68;7.80;;;;;;;37.16;27.74;98773.09;5111778;28;20051;-72
2022/07/10 06:57:44;;;;;;;7.75;6.60;;;;;;;37.40;26.57;98775.78;5076650;28;20039;-71
2022/07/10 07:00:13;;;;;;;10.05;6.65;;;;;;;37.68;25.60;98781.31;5076370;28;20078;-71
2022/07/10 07:02:39;;;;;;;12.40;6.20;;;;;;;38.06;25.77;98778.72;5093174;28;20407;-72
2022/07/10 07:05:06;;;;;;;9.32;6.30;;;;;;;37.13;25.75;98776.59;5076275;28;20040;-71
2022/07/10 07:07:31;;;;;;;8.10;6.20;;;;;;;37.19;25.11;98789.84;5076120;28;20092;-72
2022/07/10 07:09:57;;;;;;;10.05;5.95;;;;;;;37.41;25.34;98782.94;5092979;28;20040;-71
2022/07/10 07:12:23;;;;;;;9.43;5.95;;;;;;;37.96;24.73;98774.53;5093176;28;20047;-73
2022/07/10 07:14:49;;;;;;;12.75;5.93;;;;;;;38.65;24.25;98784.94;5093086;28;20043;-71
2022/07/10 07:17:21;;;;;;;7.15;5.10;;;;;;;38.93;22.63;98779.19;5092903;28;20410;-73
2022/07/10 07:25:18;;;;;;;7.57;5.05;;;;;;;37.20;24.10;98791.44;5092815;28;20062;-72
2022/07/10 07:27:45;;;;;;;8.63;5.15;;;;;;;36.75;24.27;98787.31;5076461;28;20507;-71
2022/07/10 07:30:16;;;;;;;6.72;5.00;;;;;;;36.29;24.99;98760.16;5093193;28;20575;-71
2022/07/10 07:32:44;;;;;;;6.57;4.60;;;;;;;37.28;23.99;98773.06;5076336;28;20062;-71
2022/07/10 07:35:10;;;;;;;6.70;4.85;;;;;;;37.43;23.40;98763.19;5092264;28;20039;-71
2022/07/10 07:37:41;;;;;;;7.65;4.85;;;;;;;38.67;22.59;98780.59;5092845;28;20046;-71
2022/07/10 07:40:10;;;;;;;6.50;4.95;;;;;;;39.68;21.01;98769.19;5075852;28;20124;-72
2022/07/10 07:42:36;;;;;;;12.30;4.90;;;;;;;40.05;19.42;98790.53;5076240;28;20172;-72
2022/07/10 07:45:03;;;;;;;7.25;4.05;;;;;;;39.54;20.05;98788.41;5092645;28;20124;-71
2022/07/10 07:47:31;;;;;;;7.90;4.80;;;;;;;39.60;20.12;98759.94;5076324;28;20134;-72
2022/07/10 07:50:02;;;;;;;8.10;4.65;;;;;;;40.51;19.23;98780.16;5092468;28;20043;-72
2022/07/10 07:52:28;;;;;;;9.23;4.63;;;;;;;40.47;19.11;98754.25;5093105;28;20059;-72
2022/07/10 07:54:54;;;;;;;6.22;4.43;;;;;;;40.98;18.95;98774.84;5075670;28;20460;-71
2022/07/10 07:57:20;;;;;;;7.55;4.72;;;;;;;41.71;17.98;98774.94;5092856;28;20051;-73
2022/07/10 07:59:46;;;;;;;8.95;4.55;;;;;;;41.56;18.55;98767.63;5093087;28;20039;-73
2022/07/10 08:02:11;;;;;;;6.88;4.80;;;;;;;41.80;18.40;98762.66;5092749;28;20043;-71
2022/07/10 08:04:37;;;;;;;9.48;5.18;;;;;;;41.96;18.20;98752.84;5058848;28;20577;-70
2022/07/10 08:07:03;;;;;;;9.90;5.35;;;;;;;44.15;16.10;98766.59;5059040;28;20503;-71
2022/07/10 08:09:30;;;;;;;7.55;4.30;;;;;;;46.43;14.24;98765.47;5110589;28;20036;-71
2022/07/10 08:11:55;;;;;;;6.10;4.03;;;;;;;47.50;12.94;98766.59;5110725;28;20043;-72
2022/07/10 08:14:21;;;;;;;7.47;4.00;;;;;;;47.29;12.50;98762.06;5058906;28;20460;-72
2022/07/10 08:16:47;;;;;;;5.90;3.50;;;;;;;47.02;13.11;98757.59;5075700;28;20055;-73
2022/07/10 08:19:13;;;;;;;7.22;3.60;;;;;;;45.71;14.02;98754.41;5052311;28;20056;-73
2022/07/10 08:21:38;;;;;;;3.97;3.15;;;;;;;45.32;14.08;98756.69;5044267;28;20090;-74
2022/07/10 08:24:04;;;;;;;6.82;3.40;;;;;;;46.78;13.11;98753.84;5052359;28;20071;-74
2022/07/10 08:26:30;;;;;;;7.65;3.10;;;;;;;47.83;12.12;98745.19;5069301;28;20043;-76
2022/07/10 08:28:58;;;;;;;8.50;3.95;;;;;;;48.15;11.89;98763.16;5035744;28;20456;-75
2022/07/10 08:31:24;;;;;;;6.50;3.67;;;;;;;47.33;12.64;98760.00;5068899;28;20535;-76
2022/07/10 08:33:51;;;;;;;4.68;3.22;;;;;;;44.55;14.50;98744.53;5052549;28;20076;-76
2022/07/10 08:36:16;;;;;;;6.35;3.25;;;;;;;45.61;14.09;98755.31;5053154;28;20075;-74
2022/07/10 08:38:43;;;;;;;7.85;3.00;;;;;;;45.23;14.28;98759.09;5036154;28;20045;-73
2022/07/10 08:41:11;;;;;;;8.23;3.05;;;;;;;45.08;14.31;98763.19;5068742;28;20566;-74
2022/07/10 08:43:37;;;;;;;9.55;3.25;;;;;;;44.23;14.97;98759.75;5068809;28;20079;-73
2022/07/10 08:46:02;;;;;;;6.88;3.00;;;;;;;45.37;14.53;98757.03;5052395;28;20512;-75
2022/07/10 08:48:33;;;;;;;6.43;2.90;;;;;;;46.10;13.55;98746.50;5057143;28;20041;-75
2022/07/10 08:51:03;;;;;;;6.65;2.97;;;;;;;45.31;13.86;98763.47;5060096;28;20500;-73
2022/07/10 08:53:30;;;;;;;4.28;2.70;;;;;;;44.47;14.32;98748.53;5081851;28;20044;-74
2022/07/10 08:55:59;;;;;;;4.30;2.72;;;;;;;43.81;15.07;98723.38;5066928;28;20044;-72
2022/07/10 08:58:27;;;;;;;4.65;2.58;;;;;;;42.45;15.90;98738.47;5084647;28;20052;-74
2022/07/10 09:00:53;;;;;;;6.22;2.90;;;;;;;43.40;15.75;98742.47;5024266;28;20072;-75
2022/07/10 09:03:20;;;;;;;9.32;2.97;;;;;;;45.18;14.43;98726.69;5021946;28;20041;-73
2022/07/10 09:05:46;;;;;;;5.22;2.38;;;;;;;45.20;13.41;98748.69;5071675;28;20052;-73
2022/07/10 09:08:31;;;;;;;5.60;2.60;;;;;;;45.10;13.56;98746.78;5038971;28;20044;-73
2022/07/10 09:11:17;;;;;;;6.93;4.60;;;;;;;47.01;12.83;98731.47;5023059;28;20406;-73
2022/07/10 09:13:56;;;;;;;4.80;2.47;;;;;;;49.56;11.22;98737.78;5055292;28;20135;-72
2022/07/10 09:16:23;;;;;;;4.05;2.25;;;;;;;51.31;9.73;98735.84;5071622;28;20040;-73
2022/07/10 09:18:48;;;;;;;7.03;2.25;;;;;;;52.60;8.03;98714.88;5071717;28;20056;-73
2022/07/10 09:21:14;;;;;;;5.60;2.10;;;;;;;51.65;8.38;98733.19;5069258;28;20043;-74
2022/07/10 09:23:40;;;;;;;4.47;1.92;;;;;;;50.93;8.82;98725.69;5071733;28;20075;-74
2022/07/10 09:26:06;;;;;;;4.25;2.00;;;;;;;53.09;7.40;98724.41;5071133;28;20412;-74
2022/07/10 09:28:31;;;;;;;5.78;2.10;;;;;;;55.09;6.38;98729.19;5070493;28;20072;-74
2022/07/10 09:30:58;;;;;;;5.30;1.80;;;;;;;53.74;7.12;98742.09;5038800;28;20048;-75
2022/07/10 09:33:30;;;;;;;6.97;2.08;;;;;;;52.15;8.03;98734.34;5055042;28;20055;-74
2022/07/10 09:36:04;;;;;;;6.13;2.40;;;;;;;50.19;8.87;98739.81;5022168;28;20044;-76
2022/07/10 09:38:51;;;;;;;2.67;2.03;;;;;;;49.78;9.23;98700.13;5068122;28;20543;-74
2022/07/10 09:41:22;;;;;;;9.65;2.38;;;;;;;50.60;8.90;98710.84;5071328;28;20032;-74
2022/07/10 09:44:00;;;;;;;4.47;2.25;;;;;;;50.84;8.46;98717.06;5071347;28;20051;-73
2022/07/10 09:46:31;;;;;;;4.20;2.35;;;;;;;49.55;9.58;98705.16;5058862;28;20113;-75
2022/07/10 09:49:27;;;;;;;5.93;2.60;;;;;;;49.97;9.21;98702.06;5077966;28;20048;-73
2022/07/10 09:51:53;;;;;;;4.57;2.30;;;;;;;52.78;7.74;98704.50;5044512;28;20455;-75
2022/07/10 09:54:20;;;;;;;6.10;2.10;;;;;;;53.83;6.87;98730.72;5082934;28;20043;-74
2022/07/10 09:56:47;;;;;;;3.92;2.22;;;;;;;52.52;7.70;98690.88;5091741;28;20093;-73
2022/07/10 09:59:18;;;;;;;6.90;2.88;;;;;;;53.03;7.08;98709.22;5092121;28;20549;-74
2022/07/10 10:01:46;;;;;;;6.03;1.90;;;;;;;51.91;7.38;98685.75;5074491;28;20578;-74
2022/07/10 10:04:20;;;;;;;5.72;2.10;;;;;;;49.66;9.01;98697.22;5073678;28;20092;-74
2022/07/10 10:06:46;;;;;;;6.75;2.10;;;;;;;48.83;9.64;98682.56;5074261;28;20043;-72
2022/07/10 10:09:18;;;;;;;4.13;1.90;;;;;;;48.81;9.74;98668.09;5074159;28;20047;-73
2022/07/10 10:11:47;;;;;;;5.38;2.13;;;;;;;48.50;10.03;98683.63;5072818;28;20104;-73
2022/07/10 10:14:16;;;;;;;6.40;1.80;;;;;;;47.33;10.35;98694.50;5055056;28;20047;-74
2022/07/10 10:16:45;;;;;;;3.27;1.93;;;;;;;47.51;10.33;98678.94;5087400;28;20055;-73
2022/07/10 10:21:56;;;;;;;3.75;2.20;;;;;;;51.34;7.95;98672.69;5088722;28;20040;-73
2022/07/10 10:24:22;;;;;;;4.55;1.75;;;;;;;51.40;7.92;98672.91;5081939;28;20036;-72
2022/07/10 10:26:48;;;;;;;5.95;1.98;;;;;;;49.91;8.36;98650.16;5063333;28;20134;-73
2022/07/10 10:29:14;;;;;;;10.93;1.98;;;;;;;50.73;7.94;98651.53;5063848;28;20131;-72
2022/07/10 10:31:40;;;;;;;4.43;1.75;;;;;;;51.32;8.50;98666.69;5068444;28;20036;-73
2022/07/10 10:34:06;;;;;;;2.80;1.63;;;;;;;51.33;7.31;98665.41;5053861;28;20060;-73
2022/07/10 10:36:35;;;;;;;5.55;1.58;;;;;;;52.44;7.08;98664.81;5020603;28;20044;-73
2022/07/10 10:39:22;;;;;;;4.95;1.90;;;;;;;50.94;7.28;98653.72;5035965;28;20044;-74
2022/07/10 10:41:52;;;;;;;2.53;1.50;;;;;;;48.46;9.47;98656.72;5036259;28;20048;-72
2022/07/10 10:44:22;;;;;;;4.70;2.00;;;;;;;47.54;10.33;98660.38;5070107;28;20412;-76
2022/07/10 10:46:56;;;;;;;5.43;2.92;;;;;;;49.02;9.38;98647.09;5052610;28;20045;-73
2022/07/10 10:49:26;;;;;;;5.78;2.03;;;;;;;49.39;8.88;98665.59;5053357;28;20044;-73
2022/07/10 10:52:09;;;;;;;7.05;2.00;;;;;;;47.98;10.10;98645.97;5037330;28;20444;-76
2022/07/10 10:54:57;;;;;;;4.18;2.05;;;;;;;47.75;10.39;98648.00;5036738;28;20400;-76
2022/07/10 11:00:36;;;;;;;3.28;1.70;;;;;;;46.95;10.79;98646.00;5040927;28;20066;-76
2022/07/10 11:03:16;;;;;;;5.88;1.88;;;;;;;48.37;9.76;98653.69;5069860;28;20044;-75
2022/07/10 11:05:45;;;;;;;5.90;1.70;;;;;;;48.77;9.27;98658.13;5053672;28;20131;-73
2022/07/10 11:08:12;;;;;;;5.05;1.75;;;;;;;46.66;11.21;98658.84;5036919;28;20048;-74
2022/07/10 11:10:42;;;;;;;6.30;1.88;;;;;;;45.95;11.93;98632.72;5053606;28;20390;-73
2022/07/10 11:13:12;;;;;;;5.32;2.30;;;;;;;46.13;11.43;98656.63;5070036;28;20249;-74
2022/07/10 11:15:49;;;;;;;7.97;1.95;;;;;;;46.38;11.87;98649.94;5070923;28;20055;-73
2022/07/10 11:18:16;;;;;;;5.68;2.10;;;;;;;45.15;12.45;98656.63;5073128;28;20134;-73
2022/07/10 11:20:50;;;;;;;13.95;2.50;;;;;;;44.43;13.23;98643.31;5052570;28;20117;-74
2022/07/10 11:23:58;;;;;;;9.70;2.25;;;;;;;43.61;14.09;98653.03;5053352;28;20342;-74
2022/07/10 11:26:36;;;;;;;5.53;2.05;;;;;;;42.63;15.28;98639.59;5042024;28;20052;-74
2022/07/10 11:29:05;;;;;;;8.43;2.28;;;;;;;43.45;14.63;98649.81;5053262;28;20040;-73
2022/07/10 11:31:37;;;;;;;3.72;2.10;;;;;;;43.30;14.69;98637.03;5069432;28;20417;-73
2022/07/10 11:34:03;;;;;;;4.13;2.20;;;;;;;42.30;15.51;98645.44;5020560;28;20040;-73
2022/07/10 11:36:30;;;;;;;9.48;2.50;;;;;;;41.56;16.44;98624.59;5085969;28;20117;-74
2022/07/10 11:39:07;;;;;;;2.63;2.08;;;;;;;41.33;16.95;98623.97;5039690;28;20043;-73
2022/07/10 11:41:34;;;;;;;5.13;2.50;;;;;;;40.96;17.09;98604.50;5073261;28;20040;-75
2022/07/10 11:44:02;;;;;;;4.15;2.25;;;;;;;40.70;17.27;98637.22;5060538;28;20059;-74
2022/07/10 11:46:32;;;;;;;5.82;2.40;;;;;;;40.90;17.42;98616.38;5069534;28;20037;-74